Ravensdale, Washington
Current Conditions -  °F | °C
As of 6:53 PM on Monday 20 Oct 2014 (Local Time) from KRNT Reporting Station
Few Clouds Few Clouds  
Wind Chill: 57°   Ceiling: Unl
Heat Index: 57°   Visibility: 8mi
Dew Point: 55°   Wind: 3mph
Humidity: 93%   Direction: 120°ESE
Pressure: 29.76"   Gusts: NA
Location:  47.35°N, 121.99°W
Report Text: KRNT 210153Z 12003KT 8SM FEW080 14/13 A2976 RMK AO2 SLP082 T01390128
Loading
Personal Weather Stations






























Interactive Weather Map
Tropical Storm Tracking
New forecast layout! Learn more

10-Day Weather Forecast

Advertisements
Track Severe Weather on mobile